Time;durP1;ratioP1;P1;durP2;ratioP2;P2;SDS_P1;SDS_P2;PMS_P1;PMS_P2;Temp;Humidity;BMP_temperature;BMP_pressure;BME280_temperature;BME280_humidity;BME280_pressure;Samples;Min_cycle;Max_cycle;Signal;HPM_P1;HPM_P2
2022/03/17 00:01:50;;;;;;;18.63;15.97;;;11.50;99.90;;;;;;5088448;28;20165;-79
2022/03/17 00:04:16;;;;;;;19.57;15.60;;;11.50;99.90;;;;;;5088263;28;20179;-79
2022/03/17 00:06:41;;;;;;;18.37;15.73;;;11.50;99.90;;;;;;5088252;28;20220;-78
2022/03/17 00:09:07;;;;;;;19.33;16.37;;;11.50;99.90;;;;;;5082846;28;20705;-79
2022/03/17 00:11:36;;;;;;;18.43;16.33;;;11.50;99.90;;;;;;5050983;28;20259;-78
2022/03/17 00:14:01;;;;;;;19.77;16.60;;;11.50;99.90;;;;;;5050926;28;20203;-79
2022/03/17 00:16:28;;;;;;;20.50;16.93;;;11.50;99.90;;;;;;5069068;28;20246;-79
2022/03/17 00:18:55;;;;;;;19.70;16.27;;;11.50;99.90;;;;;;5070174;28;20214;-78
2022/03/17 00:21:21;;;;;;;18.53;16.17;;;11.50;99.90;;;;;;5053246;28;20546;-78
2022/03/17 00:23:47;;;;;;;18.83;16.27;;;11.50;99.90;;;;;;5074337;28;20168;-79
2022/03/17 00:26:12;;;;;;;18.87;15.90;;;11.50;99.90;;;;;;5057982;28;20613;-79
2022/03/17 00:28:39;;;;;;;21.87;16.27;;;11.50;99.90;;;;;;5054388;28;20274;-79
2022/03/17 00:31:04;;;;;;;20.13;16.10;;;11.50;99.90;;;;;;5052125;28;20734;-78
2022/03/17 00:33:30;;;;;;;20.00;15.93;;;11.50;99.90;;;;;;5073526;28;20191;-79
2022/03/17 00:35:55;;;;;;;18.40;15.70;;;11.50;99.90;;;;;;5077297;28;20168;-79
2022/03/17 00:38:21;;;;;;;20.43;16.07;;;11.50;99.90;;;;;;5059653;28;20175;-79
2022/03/17 00:40:47;;;;;;;19.27;16.40;;;11.50;99.90;;;;;;5047768;28;20333;-79
2022/03/17 00:43:14;;;;;;;18.73;15.63;;;11.40;99.90;;;;;;5064935;28;20192;-79
2022/03/17 00:45:41;;;;;;;17.97;16.10;;;11.40;99.90;;;;;;5064665;28;20180;-79
2022/03/17 00:48:07;;;;;;;21.67;17.10;;;11.50;99.90;;;;;;5064844;28;20642;-79
2022/03/17 00:50:34;;;;;;;21.37;16.93;;;11.50;99.90;;;;;;5046345;28;20226;-79
2022/03/17 00:53:00;;;;;;;20.10;17.10;;;11.40;99.90;;;;;;5065719;28;20172;-79
2022/03/17 00:55:27;;;;;;;20.53;16.47;;;11.40;99.90;;;;;;5063911;28;20545;-79
2022/03/17 00:57:52;;;;;;;18.10;15.53;;;11.40;99.90;;;;;;5064754;28;20175;-79
2022/03/17 01:00:18;;;;;;;18.50;16.53;;;11.40;99.90;;;;;;5065414;28;20206;-79
2022/03/17 01:02:45;;;;;;;18.90;16.67;;;11.40;99.90;;;;;;5065985;28;20176;-79
2022/03/17 01:05:12;;;;;;;21.40;16.47;;;11.40;99.90;;;;;;5047824;28;20182;-79
2022/03/17 01:07:38;;;;;;;18.93;16.93;;;11.40;99.90;;;;;;5067209;28;20648;-79
2022/03/17 01:10:08;;;;;;;18.90;16.87;;;11.40;99.90;;;;;;5078840;28;20207;-79
2022/03/17 01:12:34;;;;;;;19.60;16.87;;;11.40;99.90;;;;;;5087501;28;20570;-79
2022/03/17 01:15:00;;;;;;;19.27;16.23;;;11.40;99.90;;;;;;5086573;28;20198;-79
2022/03/17 01:17:27;;;;;;;19.80;16.40;;;11.40;99.90;;;;;;5068884;28;20171;-79
2022/03/17 01:19:52;;;;;;;20.63;16.63;;;11.40;99.90;;;;;;5086898;28;20202;-79
2022/03/17 01:22:18;;;;;;;21.57;16.57;;;11.40;99.90;;;;;;5087570;28;20183;-79
2022/03/17 01:24:46;;;;;;;18.60;16.60;;;11.40;99.90;;;;;;5087470;28;20217;-79
2022/03/17 01:27:12;;;;;;;20.13;16.57;;;11.40;99.90;;;;;;5086828;28;20664;-79
2022/03/17 01:29:40;;;;;;;18.90;16.87;;;11.40;99.90;;;;;;5087939;28;20195;-79
2022/03/17 01:32:07;;;;;;;19.00;15.93;;;11.40;99.90;;;;;;5070218;28;20179;-79
2022/03/17 01:34:33;;;;;;;19.43;16.63;;;11.40;99.90;;;;;;5088368;28;20272;-78
2022/03/17 01:36:58;;;;;;;19.57;17.47;;;11.40;99.90;;;;;;5071129;28;20633;-79
2022/03/17 01:39:24;;;;;;;18.57;16.57;;;11.40;99.90;;;;;;5089091;28;20187;-79
2022/03/17 01:41:49;;;;;;;23.17;17.73;;;11.40;99.90;;;;;;5071594;28;20228;-80
2022/03/17 01:44:15;;;;;;;20.07;16.97;;;11.40;99.90;;;;;;5090429;28;20175;-79
2022/03/17 01:49:25;;;;;;;22.60;18.00;;;11.40;99.90;;;;;;5091687;28;20252;-80
2022/03/17 01:51:50;;;;;;;19.67;17.53;;;11.40;99.90;;;;;;5074752;28;20698;-79
2022/03/17 01:54:19;;;;;;;20.63;17.80;;;11.50;99.90;;;;;;5044263;28;20199;-79
2022/03/17 01:56:46;;;;;;;19.33;17.23;;;11.50;99.90;;;;;;5060607;28;20164;-79
2022/03/17 01:59:12;;;;;;;21.70;18.43;;;11.40;99.90;;;;;;5060245;28;20270;-79
2022/03/17 02:01:38;;;;;;;20.37;17.90;;;11.40;99.90;;;;;;5059766;28;20168;-79
2022/03/17 02:04:05;;;;;;;22.20;18.37;;;11.40;99.90;;;;;;5041445;28;20203;-79
2022/03/17 02:06:31;;;;;;;20.40;16.90;;;11.40;99.90;;;;;;5041755;28;20621;-79
2022/03/17 02:14:09;;;;;;;20.30;17.40;;;11.40;99.90;;;;;;5078807;28;20197;-79
2022/03/17 02:16:34;;;;;;;22.17;18.03;;;11.40;99.90;;;;;;5085001;28;20608;-79
2022/03/17 02:19:00;;;;;;;20.40;17.73;;;11.40;99.90;;;;;;5081796;28;20171;-77
2022/03/17 02:21:25;;;;;;;21.50;18.57;;;11.40;99.90;;;;;;5081523;28;20174;-79
2022/03/17 02:26:37;;;;;;;22.50;17.77;;;11.40;99.90;;;;;;5080833;28;20166;-78
2022/03/17 02:29:02;;;;;;;21.43;18.43;;;11.40;99.90;;;;;;5077665;28;20202;-78
2022/03/17 02:31:28;;;;;;;19.67;17.63;;;11.30;99.90;;;;;;5075806;28;20193;-79
2022/03/17 02:33:54;;;;;;;20.50;18.23;;;11.40;99.90;;;;;;5075696;28;20222;-79
2022/03/17 02:36:20;;;;;;;22.70;19.10;;;11.40;99.90;;;;;;5076610;28;20663;-79
2022/03/17 02:38:45;;;;;;;20.33;18.13;;;11.40;99.90;;;;;;5058644;28;20233;-79
2022/03/17 02:41:21;;;;;;;23.47;18.80;;;11.30;99.90;;;;;;5075850;28;20194;-79
2022/03/17 02:43:51;;;;;;;20.93;17.63;;;11.30;99.90;;;;;;5075529;28;20613;-79
2022/03/17 02:46:17;;;;;;;22.70;18.33;;;11.40;99.90;;;;;;5075373;28;20229;-79
2022/03/17 02:48:43;;;;;;;22.83;18.13;;;11.40;99.90;;;;;;5057944;28;20533;-79
2022/03/17 02:51:09;;;;;;;24.27;18.03;;;11.40;99.90;;;;;;5075338;28;20199;-79
2022/03/17 02:53:35;;;;;;;21.27;19.00;;;11.30;99.90;;;;;;5057640;28;20213;-78
2022/03/17 02:56:00;;;;;;;21.73;18.47;;;11.40;99.90;;;;;;5075554;28;20182;-79
2022/03/17 02:58:26;;;;;;;22.37;19.37;;;11.40;99.90;;;;;;5057533;28;20179;-79
2022/03/17 03:00:51;;;;;;;21.53;17.93;;;11.40;99.90;;;;;;5075367;28;20202;-79
2022/03/17 03:03:17;;;;;;;22.20;18.70;;;11.40;99.90;;;;;;5075469;28;20182;-79
2022/03/17 03:05:44;;;;;;;20.40;17.73;;;11.40;99.90;;;;;;5075656;28;20174;-78
2022/03/17 03:08:09;;;;;;;21.53;18.83;;;11.40;99.90;;;;;;5075599;28;20362;-79
2022/03/17 03:10:35;;;;;;;21.43;19.03;;;11.40;99.90;;;;;;5078028;28;20688;-78
2022/03/17 03:13:01;;;;;;;23.03;19.40;;;11.40;99.90;;;;;;5079077;28;20250;-79
2022/03/17 03:15:29;;;;;;;21.60;18.43;;;11.30;99.90;;;;;;5080030;28;20255;-79
2022/03/17 03:17:55;;;;;;;21.33;19.03;;;11.40;99.90;;;;;;5062229;28;20178;-79
2022/03/17 03:20:21;;;;;;;21.57;18.63;;;11.40;99.90;;;;;;5080479;28;20187;-79
2022/03/17 03:22:47;;;;;;;22.27;18.60;;;11.40;99.90;;;;;;5061916;28;20213;-78
2022/03/17 03:25:12;;;;;;;23.50;18.53;;;11.40;99.90;;;;;;5061900;28;20175;-79
2022/03/17 03:27:40;;;;;;;23.80;18.20;;;11.40;99.90;;;;;;5061258;28;20171;-79
2022/03/17 03:30:11;;;;;;;21.23;18.87;;;11.30;99.90;;;;;;5079353;28;20214;-79
2022/03/17 03:32:39;;;;;;;22.43;19.13;;;11.30;99.90;;;;;;5078803;28;20155;-79
2022/03/17 03:37:22;;;;;;;24.03;19.57;;;11.30;99.90;;;;;;5060513;28;20202;-79
2022/03/17 03:37:51;;;;;;;23.90;18.87;;;11.30;99.90;;;;;;5078539;28;20187;-79
2022/03/17 03:40:16;;;;;;;25.30;19.33;;;11.30;99.90;;;;;;5060291;28;20199;-79
2022/03/17 03:42:42;;;;;;;25.43;19.13;;;11.30;99.90;;;;;;5078278;28;20175;-79
2022/03/17 03:45:08;;;;;;;21.80;19.17;;;11.30;99.90;;;;;;5078553;28;20185;-79
2022/03/17 03:47:33;;;;;;;22.40;19.07;;;11.30;99.90;;;;;;5060153;28;20246;-78
2022/03/17 03:49:59;;;;;;;22.50;19.17;;;11.30;99.90;;;;;;5070367;28;20620;-79
2022/03/17 03:52:24;;;;;;;23.17;19.40;;;11.30;99.90;;;;;;5040461;28;20199;-79
2022/03/17 03:54:50;;;;;;;24.90;20.07;;;11.30;99.90;;;;;;5058339;28;20199;-79
2022/03/17 03:57:15;;;;;;;24.53;20.80;;;11.30;99.90;;;;;;5058464;28;20545;-78
2022/03/17 03:59:42;;;;;;;24.20;20.53;;;11.30;99.90;;;;;;5060145;28;20236;-79
2022/03/17 04:02:09;;;;;;;23.53;20.23;;;11.30;99.90;;;;;;5078878;28;20167;-78
2022/03/17 04:04:36;;;;;;;26.90;21.53;;;11.30;99.90;;;;;;5060240;28;20241;-78
2022/03/17 04:07:08;;;;;;;22.07;19.73;;;11.20;99.90;;;;;;5060262;28;20200;-79
2022/03/17 04:09:35;;;;;;;24.47;21.03;;;11.30;99.90;;;;;;5078377;28;20206;-78
2022/03/17 04:12:02;;;;;;;27.67;20.37;;;11.30;99.90;;;;;;5078856;28;20166;-79
2022/03/17 04:14:29;;;;;;;25.10;20.43;;;11.20;99.90;;;;;;5078217;28;20595;-79
2022/03/17 04:16:55;;;;;;;27.57;22.30;;;11.20;99.90;;;;;;5066795;28;20171;-79
2022/03/17 04:19:20;;;;;;;26.47;21.70;;;11.20;99.90;;;;;;5059696;28;20244;-78
2022/03/17 04:21:48;;;;;;;25.87;22.73;;;11.20;99.90;;;;;;5077093;28;20171;-78
2022/03/17 04:24:14;;;;;;;27.37;22.73;;;11.20;99.90;;;;;;5077163;28;20175;-78
2022/03/17 04:26:40;;;;;;;28.70;23.33;;;11.10;99.90;;;;;;5077007;28;20261;-79
2022/03/17 04:29:06;;;;;;;25.33;22.63;;;11.10;99.90;;;;;;5076900;28;20250;-79
2022/03/17 04:31:33;;;;;;;29.47;23.53;;;11.10;99.90;;;;;;5059132;28;20237;-78
2022/03/17 04:33:58;;;;;;;29.73;23.57;;;11.00;99.90;;;;;;5076990;28;20219;-77
2022/03/17 04:36:24;;;;;;;27.50;23.27;;;10.90;99.90;;;;;;5077038;28;20637;-79
2022/03/17 04:38:50;;;;;;;28.20;23.77;;;10.90;99.90;;;;;;5075393;28;20178;-79
2022/03/17 04:41:17;;;;;;;29.93;24.83;;;10.90;99.90;;;;;;5077004;28;20190;-79
2022/03/17 04:43:43;;;;;;;29.40;24.70;;;10.80;99.90;;;;;;5077006;28;20171;-79
2022/03/17 04:46:08;;;;;;;30.33;25.90;;;10.80;99.90;;;;;;5077792;28;20178;-79
2022/03/17 04:48:34;;;;;;;29.97;25.70;;;10.70;99.90;;;;;;5078043;28;20177;-79
2022/03/17 04:51:00;;;;;;;30.20;25.00;;;10.70;99.90;;;;;;5077419;28;20286;-79
2022/03/17 04:53:32;;;;;;;31.73;26.60;;;10.70;99.90;;;;;;5077174;28;20274;-79
2022/03/17 04:56:02;;;;;;;30.20;26.17;;;10.60;99.90;;;;;;5077309;28;20152;-78
2022/03/17 04:58:29;;;;;;;34.10;27.23;;;10.60;99.90;;;;;;5077755;28;20175;-78
2022/03/17 05:00:56;;;;;;;31.80;25.87;;;10.60;99.90;;;;;;5058442;28;20237;-78
2022/03/17 05:03:22;;;;;;;32.73;26.97;;;10.50;99.90;;;;;;5066653;28;20167;-79
2022/03/17 05:05:48;;;;;;;33.77;26.57;;;10.50;99.90;;;;;;5063838;28;20190;-79
2022/03/17 05:08:13;;;;;;;34.37;28.03;;;10.50;99.90;;;;;;5067630;28;20536;-79
2022/03/17 05:10:40;;;;;;;37.80;28.90;;;10.50;99.90;;;;;;5049698;28;20211;-78
2022/03/17 05:13:08;;;;;;;36.47;29.27;;;10.40;99.90;;;;;;5062565;28;20186;-78
2022/03/17 05:15:35;;;;;;;36.80;29.73;;;10.40;99.90;;;;;;5057084;28;20246;-79
2022/03/17 05:18:01;;;;;;;38.17;29.60;;;10.40;99.90;;;;;;5057317;28;20167;-79
2022/03/17 05:20:27;;;;;;;39.03;30.97;;;10.30;99.90;;;;;;5056548;28;20195;-77
2022/03/17 05:22:53;;;;;;;42.47;31.77;;;10.30;99.90;;;;;;5058455;28;20216;-77
2022/03/17 05:25:19;;;;;;;36.93;30.60;;;10.30;99.90;;;;;;5042373;28;20175;-76
2022/03/17 05:27:46;;;;;;;38.53;31.17;;;10.20;99.90;;;;;;5038978;28;20222;-77
2022/03/17 05:30:14;;;;;;;39.90;31.53;;;10.20;99.90;;;;;;5062721;28;20194;-76
2022/03/17 05:32:44;;;;;;;41.07;31.87;;;10.20;99.90;;;;;;5056274;28;20186;-76
2022/03/17 05:35:10;;;;;;;36.93;30.87;;;10.10;99.90;;;;;;5074144;28;20230;-78
2022/03/17 05:37:37;;;;;;;42.30;31.83;;;10.10;99.90;;;;;;5057804;28;20220;-78
2022/03/17 05:40:05;;;;;;;44.47;32.90;;;10.10;99.90;;;;;;5075378;28;20187;-77
2022/03/17 05:42:31;;;;;;;45.77;31.67;;;10.10;99.90;;;;;;5057506;28;20171;-77
2022/03/17 05:44:56;;;;;;;41.30;31.47;;;10.00;99.90;;;;;;5077288;28;20179;-77
2022/03/17 05:47:22;;;;;;;43.10;31.00;;;10.10;99.90;;;;;;5058069;28;20521;-79
2022/03/17 05:49:48;;;;;;;44.20;32.80;;;10.10;99.90;;;;;;5058484;28;20278;-79
2022/03/17 05:52:14;;;;;;;40.67;31.73;;;10.00;99.90;;;;;;5076457;28;20183;-78
2022/03/17 05:54:40;;;;;;;38.60;29.47;;;10.00;99.90;;;;;;5075554;28;20194;-78
2022/03/17 05:57:05;;;;;;;41.80;30.93;;;10.00;99.90;;;;;;5074968;28;20175;-78
2022/03/17 05:59:31;;;;;;;37.50;27.77;;;10.00;99.90;;;;;;5058094;28;20191;-78
2022/03/17 06:01:58;;;;;;;36.57;27.17;;;10.00;99.90;;;;;;5075782;28;20163;-77
2022/03/17 06:04:23;;;;;;;28.70;23.37;;;10.00;99.90;;;;;;5074813;28;20730;-77
2022/03/17 06:06:49;;;;;;;29.53;21.73;;;10.00;99.90;;;;;;5074834;28;20178;-77
2022/03/17 06:09:15;;;;;;;27.00;19.90;;;10.00;99.90;;;;;;5074318;28;20171;-79
2022/03/17 06:11:41;;;;;;;22.47;18.27;;;10.10;99.90;;;;;;5077096;28;20636;-79
2022/03/17 06:14:06;;;;;;;26.37;21.23;;;10.00;99.90;;;;;;5059209;28;20264;-79
2022/03/17 06:16:33;;;;;;;28.43;21.43;;;10.00;99.90;;;;;;5059310;28;20533;-78
2022/03/17 06:18:58;;;;;;;19.57;15.30;;;10.00;99.90;;;;;;5059046;28;20368;-78
2022/03/17 06:21:24;;;;;;;17.57;14.67;;;10.00;99.90;;;;;;5078283;28;20624;-81
2022/03/17 06:23:50;;;;;;;16.00;13.97;;;9.90;99.90;;;;;;5078040;28;20175;-76
2022/03/17 06:26:15;;;;;;;20.40;14.30;;;9.80;99.90;;;;;;5074613;28;20206;-77
2022/03/17 06:28:41;;;;;;;18.57;14.07;;;9.70;99.90;;;;;;5074551;28;20182;-76
2022/03/17 06:31:06;;;;;;;18.73;15.13;;;9.60;99.90;;;;;;5057249;28;20681;-78
2022/03/17 06:33:32;;;;;;;20.97;15.47;;;9.60;99.90;;;;;;5057490;28;20198;-77
2022/03/17 06:35:58;;;;;;;21.20;15.83;;;9.50;99.90;;;;;;5075816;28;20542;-77
2022/03/17 06:38:23;;;;;;;23.27;17.60;;;9.50;99.90;;;;;;5076727;28;20513;-78
2022/03/17 06:40:50;;;;;;;25.70;18.40;;;9.40;99.90;;;;;;5075936;28;20276;-77
2022/03/17 06:43:16;;;;;;;27.13;18.13;;;9.40;99.90;;;;;;5057732;28;20175;-77
2022/03/17 06:45:42;;;;;;;28.70;19.37;;;9.40;99.90;;;;;;5073106;28;20167;-78
2022/03/17 06:48:08;;;;;;;25.53;19.23;;;9.40;99.90;;;;;;5056004;28;20225;-78
2022/03/17 06:50:34;;;;;;;30.13;20.60;;;9.40;99.90;;;;;;5074602;28;20202;-77
2022/03/17 06:53:00;;;;;;;27.50;21.30;;;9.40;99.90;;;;;;5056829;28;20178;-78
2022/03/17 06:55:25;;;;;;;32.43;21.70;;;9.40;99.90;;;;;;5056660;28;20259;-78
2022/03/17 06:57:51;;;;;;;31.43;22.50;;;9.40;99.90;;;;;;5074409;28;20159;-78
2022/03/17 07:00:18;;;;;;;36.97;26.23;;;9.30;99.90;;;;;;5076471;28;20187;-78
2022/03/17 07:02:43;;;;;;;37.03;27.10;;;9.30;99.90;;;;;;5058875;28;20550;-79
2022/03/17 07:05:10;;;;;;;41.40;27.00;;;9.30;99.90;;;;;;5057525;28;20185;-78
2022/03/17 07:07:36;;;;;;;29.47;20.50;;;9.30;99.90;;;;;;5075215;28;20174;-78
2022/03/17 07:10:02;;;;;;;27.33;18.53;;;9.20;99.90;;;;;;5074613;28;20206;-78
2022/03/17 07:12:28;;;;;;;26.00;19.47;;;9.10;99.90;;;;;;5057534;28;20174;-78
2022/03/17 07:14:53;;;;;;;25.83;19.20;;;9.10;99.90;;;;;;5075633;28;20202;-78
2022/03/17 07:17:20;;;;;;;25.13;18.40;;;9.00;99.90;;;;;;5057537;28;20171;-78
2022/03/17 07:22:23;;;;;;;23.23;16.63;;;8.90;99.90;;;;;;5075701;28;20246;-78
2022/03/17 07:24:48;;;;;;;20.97;14.80;;;8.90;99.90;;;;;;5057898;28;20672;-79
2022/03/17 07:27:14;;;;;;;21.47;13.80;;;8.80;99.90;;;;;;5076228;28;20207;-78
2022/03/17 07:29:39;;;;;;;21.93;12.57;;;8.70;99.90;;;;;;5076052;28;20187;-78
2022/03/17 07:32:05;;;;;;;19.63;11.87;;;8.70;99.90;;;;;;5075795;28;20533;-79
2022/03/17 07:34:31;;;;;;;14.93;10.50;;;8.60;99.90;;;;;;5057141;28;20195;-79
2022/03/17 07:36:56;;;;;;;16.53;11.17;;;8.60;99.90;;;;;;5075566;28;20207;-78
2022/03/17 07:39:22;;;;;;;19.47;11.63;;;8.60;99.90;;;;;;5075573;28;20573;-79
2022/03/17 07:41:48;;;;;;;18.17;10.63;;;8.60;99.90;;;;;;5075755;28;20190;-79
2022/03/17 07:44:14;;;;;;;18.93;9.53;;;8.60;99.90;;;;;;5075741;28;20649;-78
2022/03/17 07:46:40;;;;;;;18.77;8.97;;;8.50;99.90;;;;;;5058220;28;20179;-78
2022/03/17 07:49:05;;;;;;;16.63;8.13;;;8.50;99.90;;;;;;5075634;28;20174;-79
2022/03/17 07:51:31;;;;;;;17.60;7.57;;;8.50;99.90;;;;;;5075743;28;20183;-79
2022/03/17 07:53:57;;;;;;;16.07;7.40;;;8.50;99.90;;;;;;5074720;28;20199;-79
2022/03/17 07:56:23;;;;;;;16.07;7.73;;;8.40;99.90;;;;;;5077113;28;20178;-79
2022/03/17 07:58:48;;;;;;;15.27;6.90;;;8.40;99.90;;;;;;5078297;28;20184;-79
2022/03/17 08:01:16;;;;;;;17.17;6.50;;;8.30;99.90;;;;;;5060669;28;20199;-79
2022/03/17 08:03:41;;;;;;;14.23;6.73;;;8.30;99.90;;;;;;5078722;28;20171;-79
2022/03/17 08:06:07;;;;;;;11.23;5.70;;;8.30;99.90;;;;;;5078817;28;20181;-79
2022/03/17 08:08:34;;;;;;;14.60;5.90;;;8.30;99.90;;;;;;5079175;28;20179;-78
2022/03/17 08:10:59;;;;;;;12.47;5.27;;;8.30;99.90;;;;;;5073855;23;20356;-79
2022/03/17 08:13:25;;;;;;;7.93;5.20;;;8.30;99.90;;;;;;5061399;28;20295;-80
2022/03/17 08:15:51;;;;;;;10.40;4.67;;;8.30;99.90;;;;;;5079667;28;20253;-79
2022/03/17 08:18:17;;;;;;;10.33;4.40;;;8.30;99.90;;;;;;5078080;28;20175;-79
2022/03/17 08:20:42;;;;;;;16.97;4.77;;;8.30;99.90;;;;;;5079178;28;20195;-79
2022/03/17 08:23:09;;;;;;;8.97;4.10;;;8.30;99.90;;;;;;5078245;28;20220;-79
2022/03/17 08:25:35;;;;;;;9.90;4.20;;;8.30;99.90;;;;;;5060457;28;20178;-79
2022/03/17 08:28:04;;;;;;;10.37;4.27;;;8.30;99.90;;;;;;5079157;28;20163;-79
2022/03/17 08:30:32;;;;;;;9.47;3.67;;;8.30;99.90;;;;;;5077682;28;20187;-79
2022/03/17 08:32:58;;;;;;;10.23;3.87;;;8.30;99.90;;;;;;5077444;28;20709;-79
2022/03/17 08:35:25;;;;;;;9.70;3.73;;;8.30;99.90;;;;;;5078426;28;20257;-79
2022/03/17 08:37:51;;;;;;;11.70;4.10;;;8.30;99.90;;;;;;5079269;28;20546;-79
2022/03/17 08:40:17;;;;;;;8.00;4.40;;;8.30;99.90;;;;;;5078698;28;20195;-79
2022/03/17 08:42:43;;;;;;;10.00;4.03;;;8.20;99.90;;;;;;5077779;28;20170;-79
2022/03/17 08:50:43;;;;;;;10.13;3.43;;;8.40;99.90;;;;;;5061466;28;20632;-78
2022/03/17 08:53:08;;;;;;;6.43;3.60;;;8.40;99.90;;;;;;5076523;28;20167;-79
2022/03/17 08:55:36;;;;;;;11.77;3.77;;;8.40;99.90;;;;;;5058585;28;20173;-79
2022/03/17 08:58:02;;;;;;;6.97;3.17;;;8.40;99.90;;;;;;5076836;28;20173;-79
2022/03/17 09:00:30;;;;;;;7.23;3.40;;;8.40;99.90;;;;;;5075776;28;20273;-80
2022/03/17 09:02:57;;;;;;;9.37;3.10;;;8.40;99.90;;;;;;5076438;28;20186;-79
2022/03/17 09:05:22;;;;;;;6.27;2.80;;;8.40;99.90;;;;;;5076268;28;20170;-79
2022/03/17 09:07:48;;;;;;;7.23;2.97;;;8.50;99.90;;;;;;5075787;28;20175;-78
2022/03/17 09:10:15;;;;;;;11.50;3.50;;;8.60;99.90;;;;;;5058499;28;20228;-79
2022/03/17 09:12:40;;;;;;;7.20;3.10;;;8.70;99.90;;;;;;5076735;28;20182;-79
2022/03/17 09:15:06;;;;;;;9.20;3.20;;;8.60;99.90;;;;;;5077284;28;20254;-78
2022/03/17 09:17:32;;;;;;;5.37;2.57;;;8.70;99.90;;;;;;5077936;28;20588;-79
2022/03/17 09:19:57;;;;;;;10.80;3.10;;;8.70;99.90;;;;;;5077081;28;20194;-79
2022/03/17 09:22:23;;;;;;;7.33;2.43;;;8.70;99.90;;;;;;5078250;28;20169;-78
2022/03/17 09:24:49;;;;;;;10.00;2.60;;;8.70;99.90;;;;;;5059362;28;20704;-79
2022/03/17 09:27:15;;;;;;;6.20;2.93;;;8.80;99.90;;;;;;5078576;28;20217;-80
2022/03/17 09:29:41;;;;;;;8.37;2.87;;;8.80;99.90;;;;;;5077745;28;20241;-80
2022/03/17 09:32:09;;;;;;;5.00;2.67;;;8.80;99.90;;;;;;5060193;28;20644;-79
2022/03/17 09:34:35;;;;;;;12.03;2.90;;;8.80;99.90;;;;;;5077897;28;20568;-79
2022/03/17 09:37:01;;;;;;;5.47;2.50;;;8.90;99.90;;;;;;5078229;28;20167;-78
2022/03/17 09:39:45;;;;;;;7.37;3.03;;;8.80;99.90;;;;;;5077634;28;20163;-79
2022/03/17 09:42:21;;;;;;;7.43;2.67;;;8.90;99.90;;;;;;5077574;28;20621;-78
2022/03/17 09:44:52;;;;;;;6.03;2.60;;;8.90;99.90;;;;;;5059154;28;20163;-80
2022/03/17 09:47:20;;;;;;;6.33;3.00;;;8.90;99.90;;;;;;5077814;28;20187;-79
2022/03/17 09:49:47;;;;;;;6.50;2.90;;;9.00;99.90;;;;;;5076999;28;20195;-79
2022/03/17 09:52:15;;;;;;;9.57;2.60;;;9.00;99.90;;;;;;5059396;28;20667;-79
2022/03/17 09:54:41;;;;;;;7.53;2.53;;;9.10;99.90;;;;;;5078112;28;20195;-79
2022/03/17 09:57:07;;;;;;;7.67;2.43;;;9.00;99.90;;;;;;5077292;28;20220;-79
2022/03/17 09:59:32;;;;;;;9.73;2.50;;;9.00;99.90;;;;;;5058267;28;20170;-80
2022/03/17 10:01:59;;;;;;;9.00;2.50;;;9.00;99.90;;;;;;5058259;28;20616;-78
2022/03/17 10:04:29;;;;;;;10.37;2.47;;;9.00;99.90;;;;;;5058247;28;20216;-79
2022/03/17 10:06:55;;;;;;;15.20;2.80;;;9.10;99.90;;;;;;5077294;28;20228;-79
2022/03/17 10:09:21;;;;;;;6.63;2.23;;;9.00;99.90;;;;;;5076457;28;20214;-80
2022/03/17 10:12:06;;;;;;;5.17;2.13;;;8.90;99.90;;;;;;5076426;28;20195;-79
2022/03/17 10:14:43;;;;;;;5.90;1.67;;;8.90;99.90;;;;;;5075932;28;20206;-79
2022/03/17 10:17:32;;;;;;;6.93;2.30;;;8.90;99.90;;;;;;5076794;28;20315;-79
2022/03/17 10:20:28;;;;;;;6.17;2.33;;;8.90;99.90;;;;;;5075518;28;20187;-79
2022/03/17 10:22:59;;;;;;;7.97;2.20;;;8.90;99.90;;;;;;5058694;28;20170;-79
2022/03/17 10:25:26;;;;;;;6.47;1.93;;;8.90;99.90;;;;;;5058923;28;20189;-79
2022/03/17 10:27:56;;;;;;;6.17;2.10;;;8.90;99.90;;;;;;5079165;28;20179;-79
2022/03/17 10:30:34;;;;;;;10.97;2.57;;;9.00;99.90;;;;;;5061578;28;20301;-78
2022/03/17 10:33:13;;;;;;;7.07;2.40;;;9.00;99.90;;;;;;5079780;28;20580;-79
2022/03/17 10:35:45;;;;;;;6.63;1.97;;;9.00;99.90;;;;;;5079999;28;20506;-79
2022/03/17 10:38:16;;;;;;;9.67;2.20;;;9.00;99.90;;;;;;5061290;28;20163;-78
2022/03/17 10:40:43;;;;;;;7.00;2.80;;;9.00;99.90;;;;;;5078749;28;20186;-80
2022/03/17 10:43:24;;;;;;;7.50;2.07;;;9.00;99.90;;;;;;5079134;28;20169;-79
2022/03/17 10:46:04;;;;;;;12.33;2.30;;;8.90;99.90;;;;;;5078879;28;20167;-78
2022/03/17 10:48:30;;;;;;;10.50;2.10;;;8.90;99.90;;;;;;5080730;28;20177;-78
2022/03/17 10:50:56;;;;;;;12.23;2.43;;;8.90;99.90;;;;;;5061578;28;20680;-78
2022/03/17 10:53:27;;;;;;;14.63;3.37;;;8.90;99.90;;;;;;5076734;28;20174;-78
2022/03/17 10:56:08;;;;;;;10.47;3.30;;;8.90;99.90;;;;;;5075640;28;20182;-79
2022/03/17 10:58:41;;;;;;;11.03;3.13;;;9.00;99.90;;;;;;5076180;28;20162;-79
2022/03/17 11:01:07;;;;;;;14.87;3.00;;;9.10;99.90;;;;;;5075201;28;20182;-79
2022/03/17 11:03:33;;;;;;;10.53;2.10;;;9.20;99.90;;;;;;5075331;28;20241;-79
2022/03/17 11:05:58;;;;;;;12.13;2.90;;;9.40;99.90;;;;;;5076026;28;20170;-78
2022/03/17 11:08:25;;;;;;;10.57;2.40;;;9.50;99.90;;;;;;5060006;28;20174;-78
2022/03/17 11:10:51;;;;;;;8.87;2.43;;;9.60;99.90;;;;;;5077811;28;20221;-78
2022/03/17 11:13:16;;;;;;;7.57;2.30;;;9.70;99.90;;;;;;5077546;28;20270;-78
2022/03/17 11:15:45;;;;;;;5.17;1.90;;;9.90;99.90;;;;;;5077096;28;20171;-78
2022/03/17 11:18:20;;;;;;;8.93;2.03;;;9.90;99.90;;;;;;5059707;28;20265;-79
2022/03/17 11:20:47;;;;;;;7.60;1.63;;;10.00;99.90;;;;;;5077332;28;20191;-78
2022/03/17 11:23:22;;;;;;;10.37;2.23;;;10.00;99.90;;;;;;5060464;28;20243;-78
2022/03/17 11:25:53;;;;;;;6.27;1.80;;;10.00;99.90;;;;;;5059796;28;20162;-79
2022/03/17 11:28:30;;;;;;;6.00;2.17;;;10.00;99.90;;;;;;5077899;28;20171;-79
2022/03/17 11:31:00;;;;;;;6.00;1.60;;;10.00;53.40;;;;;;5061772;28;20548;-78
2022/03/17 11:33:32;;;;;;;7.63;2.03;;;10.00;41.70;;;;;;5061888;28;20197;-79
2022/03/17 11:36:08;;;;;;;5.67;1.70;;;10.00;1.00;;;;;;5078761;28;20167;-79
2022/03/17 11:38:37;;;;;;;8.07;1.97;;;10.20;97.30;;;;;;5078037;28;20186;-79
2022/03/17 11:41:15;;;;;;;9.77;2.00;;;10.20;37.00;;;;;;5078431;28;20283;-78
2022/03/17 11:43:46;;;;;;;9.73;1.70;;;10.30;99.90;;;;;;5079360;28;20166;-80
2022/03/17 11:46:14;;;;;;;8.87;1.80;;;10.30;1.00;;;;;;5078748;28;20178;-79
2022/03/17 11:48:44;;;;;;;9.67;1.80;;;10.40;1.00;;;;;;5060418;28;20244;-79
2022/03/17 11:51:12;;;;;;;7.07;2.17;;;10.50;1.00;;;;;;5088471;28;20220;-78
2022/03/17 11:53:47;;;;;;;9.57;1.93;;;10.50;1.00;;;;;;5079509;28;20751;-79
2022/03/17 11:56:37;;;;;;;10.23;1.90;;;10.50;1.00;;;;;;5060646;28;20201;-78
2022/03/17 11:59:07;;;;;;;8.77;1.93;;;10.50;1.00;;;;;;5077487;28;20647;-79
2022/03/17 12:01:34;;;;;;;12.97;1.90;;;10.40;99.90;;;;;;5058333;28;20199;-78
2022/03/17 12:04:07;;;;;;;7.77;1.67;;;10.50;99.90;;;;;;5076504;28;20175;-78
2022/03/17 12:06:39;;;;;;;6.20;1.70;;;10.40;99.90;;;;;;5076717;28;20175;-78
2022/03/17 12:09:09;;;;;;;4.33;2.03;;;10.50;1.00;;;;;;5058346;28;20182;-78
2022/03/17 12:11:37;;;;;;;6.33;2.10;;;10.50;1.00;;;;;;5075957;28;20211;-78
2022/03/17 12:14:14;;;;;;;4.60;1.37;;;10.40;99.90;;;;;;5076157;28;20205;-79
2022/03/17 12:17:00;;;;;;;8.37;2.03;;;10.40;99.90;;;;;;5076498;28;20257;-78
2022/03/17 12:19:36;;;;;;;6.17;1.60;;;10.40;99.90;;;;;;5058231;28;20262;-79
2022/03/17 12:22:32;;;;;;;7.33;1.50;;;10.40;99.90;;;;;;5058233;28;20174;-78
2022/03/17 12:25:03;;;;;;;9.63;2.20;;;10.30;99.90;;;;;;5058461;28;20163;-78
2022/03/17 12:27:30;;;;;;;7.10;1.80;;;10.30;99.90;;;;;;5076268;28;20182;-78
2022/03/17 12:30:06;;;;;;;10.63;1.83;;;10.30;99.90;;;;;;5076629;28;20202;-79
2022/03/17 12:32:40;;;;;;;10.50;2.17;;;10.20;99.90;;;;;;5058646;28;20178;-79
2022/03/17 12:35:12;;;;;;;6.97;1.60;;;10.20;99.90;;;;;;5075646;28;20194;-78
2022/03/17 12:37:38;;;;;;;10.57;1.80;;;10.30;99.90;;;;;;5076005;28;20219;-78
2022/03/17 12:40:07;;;;;;;5.10;1.37;;;10.30;99.90;;;;;;5076114;28;20269;-79
2022/03/17 12:42:39;;;;;;;8.07;2.13;;;10.20;99.90;;;;;;5057635;28;20171;-78
2022/03/17 12:45:07;;;;;;;10.73;2.17;;;10.20;99.90;;;;;;5075840;28;20163;-78
2022/03/17 12:47:39;;;;;;;8.87;1.93;;;10.20;99.90;;;;;;5075970;28;20171;-78
2022/03/17 12:50:08;;;;;;;7.23;1.80;;;10.20;99.90;;;;;;5076433;28;20202;-79
2022/03/17 12:52:35;;;;;;;12.70;2.40;;;10.10;99.90;;;;;;5057559;28;20180;-78
2022/03/17 12:55:03;;;;;;;11.23;1.90;;;10.20;99.90;;;;;;5075535;28;20206;-78
2022/03/17 12:57:30;;;;;;;4.97;2.00;;;10.20;99.90;;;;;;5057429;28;20171;-78
2022/03/17 12:59:57;;;;;;;7.13;2.27;;;10.30;99.90;;;;;;5075690;28;20194;-79